sensor_id;sensor_type;location;lat;lon;timestamp;pressure;altitude;pressure_sealevel;temperature;humidity
24306;BME280;12423;48.768;8.850;2023-01-29T00:01:05;98029.25;;;-0.44;100.00
24306;BME280;12423;48.768;8.850;2023-01-29T00:03:06;98024.91;;;-0.45;100.00
24306;BME280;12423;48.768;8.850;2023-01-29T00:05:08;98031.13;;;-0.48;100.00
24306;BME280;12423;48.768;8.850;2023-01-29T00:07:09;98026.81;;;-0.52;100.00
24306;BME280;12423;48.768;8.850;2023-01-29T00:09:11;98023.81;;;-0.38;100.00
24306;BME280;12423;48.768;8.850;2023-01-29T00:11:13;98024.75;;;-0.39;100.00
24306;BME280;12423;48.768;8.850;2023-01-29T00:13:14;98019.66;;;-0.45;100.00
24306;BME280;12423;48.768;8.850;2023-01-29T00:15:15;98018.56;;;-0.38;100.00
24306;BME280;12423;48.768;8.850;2023-01-29T00:17:16;98020.22;;;-0.34;100.00
24306;BME280;12423;48.768;8.850;2023-01-29T00:19:17;98027.03;;;-0.27;100.00
24306;BME280;12423;48.768;8.850;2023-01-29T00:21:20;98023.59;;;-0.29;100.00
24306;BME280;12423;48.768;8.850;2023-01-29T00:23:24;98015.84;;;-0.33;100.00
24306;BME280;12423;48.768;8.850;2023-01-29T00:25:25;98006.06;;;-0.28;100.00
24306;BME280;12423;48.768;8.850;2023-01-29T00:27:26;98013.06;;;-0.27;100.00
24306;BME280;12423;48.768;8.850;2023-01-29T00:29:27;98026.16;;;-0.26;100.00
24306;BME280;12423;48.768;8.850;2023-01-29T00:31:28;98016.44;;;-0.24;100.00
24306;BME280;12423;48.768;8.850;2023-01-29T00:33:29;98006.28;;;-0.36;100.00
24306;BME280;12423;48.768;8.850;2023-01-29T00:35:31;98015.88;;;-0.35;100.00
24306;BME280;12423;48.768;8.850;2023-01-29T00:37:31;98010.69;;;-0.38;100.00
24306;BME280;12423;48.768;8.850;2023-01-29T00:39:32;98017.00;;;-0.44;100.00
24306;BME280;12423;48.768;8.850;2023-01-29T00:41:38;98013.25;;;-0.35;100.00
24306;BME280;12423;48.768;8.850;2023-01-29T00:43:58;98013.97;;;-0.30;100.00
24306;BME280;12423;48.768;8.850;2023-01-29T00:46:18;98019.22;;;-0.30;100.00
24306;BME280;12423;48.768;8.850;2023-01-29T00:48:19;98013.13;;;-0.30;100.00
24306;BME280;12423;48.768;8.850;2023-01-29T00:50:20;98007.84;;;-0.29;100.00
24306;BME280;12423;48.768;8.850;2023-01-29T00:52:22;98015.72;;;-0.29;100.00
24306;BME280;12423;48.768;8.850;2023-01-29T00:54:25;98013.06;;;-0.27;100.00
24306;BME280;12423;48.768;8.850;2023-01-29T00:56:28;98018.25;;;-0.26;100.00
24306;BME280;12423;48.768;8.850;2023-01-29T00:58:29;98014.13;;;-0.34;100.00
24306;BME280;12423;48.768;8.850;2023-01-29T01:00:34;98019.16;;;-0.27;100.00
24306;BME280;12423;48.768;8.850;2023-01-29T01:02:35;98021.78;;;-0.27;100.00
24306;BME280;12423;48.768;8.850;2023-01-29T01:04:54;98015.75;;;-0.30;100.00
24306;BME280;12423;48.768;8.850;2023-01-29T01:06:55;98001.28;;;-0.45;100.00
24306;BME280;12423;48.768;8.850;2023-01-29T01:08:56;98015.94;;;-0.38;100.00
24306;BME280;12423;48.768;8.850;2023-01-29T01:11:16;98022.19;;;-0.42;100.00
24306;BME280;12423;48.768;8.850;2023-01-29T01:13:17;98015.09;;;-0.39;100.00
24306;BME280;12423;48.768;8.850;2023-01-29T01:15:18;98023.81;;;-0.38;100.00
24306;BME280;12423;48.768;8.850;2023-01-29T01:17:19;98015.13;;;-0.40;100.00
24306;BME280;12423;48.768;8.850;2023-01-29T01:19:20;98023.94;;;-0.41;100.00
24306;BME280;12423;48.768;8.850;2023-01-29T01:21:21;98025.72;;;-0.43;100.00
24306;BME280;12423;48.768;8.850;2023-01-29T01:23:22;98016.22;;;-0.47;100.00
24306;BME280;12423;48.768;8.850;2023-01-29T01:25:25;98021.53;;;-0.50;100.00
24306;BME280;12423;48.768;8.850;2023-01-29T01:27:26;97998.88;;;-0.54;100.00
24306;BME280;12423;48.768;8.850;2023-01-29T01:29:27;98002.50;;;-0.59;100.00
24306;BME280;12423;48.768;8.850;2023-01-29T01:31:28;98008.31;;;-0.46;100.00
24306;BME280;12423;48.768;8.850;2023-01-29T01:33:29;98009.19;;;-0.47;100.00
24306;BME280;12423;48.768;8.850;2023-01-29T01:35:30;98009.22;;;-0.48;100.00
24306;BME280;12423;48.768;8.850;2023-01-29T01:37:31;98013.69;;;-0.52;100.00
24306;BME280;12423;48.768;8.850;2023-01-29T01:39:32;98018.94;;;-0.52;100.00
24306;BME280;12423;48.768;8.850;2023-01-29T01:41:33;98008.69;;;-0.61;100.00
24306;BME280;12423;48.768;8.850;2023-01-29T01:43:54;98018.09;;;-0.52;100.00
24306;BME280;12423;48.768;8.850;2023-01-29T01:45:55;98021.81;;;-0.61;100.00
24306;BME280;12423;48.768;8.850;2023-01-29T01:50:12;98012.19;;;-0.61;100.00
24306;BME280;12423;48.768;8.850;2023-01-29T01:52:16;98018.25;;;-0.59;100.00
24306;BME280;12423;48.768;8.850;2023-01-29T01:54:25;98009.38;;;-0.54;100.00
24306;BME280;12423;48.768;8.850;2023-01-29T01:56:32;98013.78;;;-0.55;100.00
24306;BME280;12423;48.768;8.850;2023-01-29T01:58:40;98014.81;;;-0.61;100.00
24306;BME280;12423;48.768;8.850;2023-01-29T02:00:43;98004.47;;;-0.67;100.00
24306;BME280;12423;48.768;8.850;2023-01-29T02:02:45;98002.66;;;-0.65;100.00
24306;BME280;12423;48.768;8.850;2023-01-29T02:05:05;98001.63;;;-0.58;100.00
24306;BME280;12423;48.768;8.850;2023-01-29T02:07:25;98005.19;;;-0.62;100.00
24306;BME280;12423;48.768;8.850;2023-01-29T02:10:19;98008.69;;;-0.61;100.00
24306;BME280;12423;48.768;8.850;2023-01-29T02:12:13;98010.75;;;-0.72;100.00
24306;BME280;12423;48.768;8.850;2023-01-29T02:14:15;98008.09;;;-0.71;100.00
24306;BME280;12423;48.768;8.850;2023-01-29T02:16:16;98009.72;;;-0.67;100.00
24306;BME280;12423;48.768;8.850;2023-01-29T02:18:19;98018.31;;;-0.62;100.00
24306;BME280;12423;48.768;8.850;2023-01-29T02:20:23;98017.47;;;-0.62;100.00
24306;BME280;12423;48.768;8.850;2023-01-29T02:27:14;98016.78;;;-0.69;100.00
24306;BME280;12423;48.768;8.850;2023-01-29T02:29:44;98021.25;;;-0.72;100.00
24306;BME280;12423;48.768;8.850;2023-01-29T02:31:55;98024.00;;;-0.79;100.00
24306;BME280;12423;48.768;8.850;2023-01-29T02:34:17;98023.22;;;-0.82;100.00
24306;BME280;12423;48.768;8.850;2023-01-29T02:36:46;98020.53;;;-0.79;100.00
24306;BME280;12423;48.768;8.850;2023-01-29T02:39:05;98019.53;;;-0.75;100.00
24306;BME280;12423;48.768;8.850;2023-01-29T02:41:27;98020.03;;;-0.95;100.00
24306;BME280;12423;48.768;8.850;2023-01-29T02:46:02;98008.09;;;-0.71;100.00
24306;BME280;12423;48.768;8.850;2023-01-29T02:48:05;98003.44;;;-0.61;100.00
24306;BME280;12423;48.768;8.850;2023-01-29T02:50:20;98006.06;;;-0.61;100.00
24306;BME280;12423;48.768;8.850;2023-01-29T02:52:33;98010.34;;;-0.57;100.00
24306;BME280;12423;48.768;8.850;2023-01-29T02:56:47;98002.44;;;-0.56;100.00
24306;BME280;12423;48.768;8.850;2023-01-29T02:58:56;97998.81;;;-0.51;100.00
24306;BME280;12423;48.768;8.850;2023-01-29T03:01:19;98005.94;;;-0.57;100.00
24306;BME280;12423;48.768;8.850;2023-01-29T03:03:26;97998.88;;;-0.54;100.00
24306;BME280;12423;48.768;8.850;2023-01-29T03:05:50;98009.56;;;-0.61;100.00
24306;BME280;12423;48.768;8.850;2023-01-29T03:07:58;98003.66;;;-0.69;100.00
24306;BME280;12423;48.768;8.850;2023-01-29T03:10:21;98015.94;;;-0.71;100.00
24306;BME280;12423;48.768;8.850;2023-01-29T03:12:26;98012.44;;;-0.71;100.00
24306;BME280;12423;48.768;8.850;2023-01-29T03:14:37;98006.28;;;-0.69;100.00
24306;BME280;12423;48.768;8.850;2023-01-29T03:16:58;98010.59;;;-0.68;100.00
24306;BME280;12423;48.768;8.850;2023-01-29T03:19:04;98002.66;;;-0.65;100.00
24306;BME280;12423;48.768;8.850;2023-01-29T03:21:10;97998.09;;;-0.58;100.00
24306;BME280;12423;48.768;8.850;2023-01-29T03:23:34;98007.69;;;-0.56;100.00
24306;BME280;12423;48.768;8.850;2023-01-29T03:25:57;98005.25;;;-0.63;100.00
24306;BME280;12423;48.768;8.850;2023-01-29T03:28:20;98011.25;;;-0.60;100.00
24306;BME280;12423;48.768;8.850;2023-01-29T03:30:44;98002.56;;;-0.62;100.00
24306;BME280;12423;48.768;8.850;2023-01-29T03:36:43;98011.56;;;-0.70;100.00
24306;BME280;12423;48.768;8.850;2023-01-29T03:38:47;98006.50;;;-0.78;100.00
24306;BME280;12423;48.768;8.850;2023-01-29T03:40:54;98004.47;;;-0.67;100.00
24306;BME280;12423;48.768;8.850;2023-01-29T03:45:39;98004.53;;;-0.70;100.00
24306;BME280;12423;48.768;8.850;2023-01-29T03:47:58;98003.56;;;-0.66;100.00
24306;BME280;12423;48.768;8.850;2023-01-29T03:50:06;98002.72;;;-0.68;100.00
24306;BME280;12423;48.768;8.850;2023-01-29T03:52:18;98000.09;;;-0.68;100.00
24306;BME280;12423;48.768;8.850;2023-01-29T03:57:59;98001.03;;;-0.69;100.00
24306;BME280;12423;48.768;8.850;2023-01-29T03:59:55;97998.47;;;-0.72;100.00
24306;BME280;12423;48.768;8.850;2023-01-29T04:02:19;98007.09;;;-0.67;100.00
24306;BME280;12423;48.768;8.850;2023-01-29T04:04:31;97997.94;;;-0.86;100.00
24306;BME280;12423;48.768;8.850;2023-01-29T04:06:36;97998.09;;;-0.93;100.00
24306;BME280;12423;48.768;8.850;2023-01-29T04:09:09;97999.38;;;-0.73;100.00
24306;BME280;12423;48.768;8.850;2023-01-29T04:11:17;97997.81;;;-0.80;100.00
24306;BME280;12423;48.768;8.850;2023-01-29T04:13:22;98007.59;;;-0.87;100.00
24306;BME280;12423;48.768;8.850;2023-01-29T04:15:27;97997.25;;;-0.93;100.00
24306;BME280;12423;48.768;8.850;2023-01-29T04:17:34;97998.59;;;-0.77;100.00
24306;BME280;12423;48.768;8.850;2023-01-29T04:19:45;98004.69;;;-0.76;100.00
24306;BME280;12423;48.768;8.850;2023-01-29T04:21:49;97994.44;;;-0.85;100.00
24306;BME280;12423;48.768;8.850;2023-01-29T04:23:53;97998.03;;;-0.89;100.00
24306;BME280;12423;48.768;8.850;2023-01-29T04:28:30;98002.31;;;-0.85;100.00
24306;BME280;12423;48.768;8.850;2023-01-29T04:30:52;98008.50;;;-0.89;100.00
24306;BME280;12423;48.768;8.850;2023-01-29T04:33:33;98013.94;;;-0.96;100.00
24306;BME280;12423;48.768;8.850;2023-01-29T04:35:58;98008.31;;;-0.80;100.00
24306;BME280;12423;48.768;8.850;2023-01-29T04:38:25;98008.38;;;-0.83;100.00
24306;BME280;12423;48.768;8.850;2023-01-29T04:41:07;98004.19;;;-0.90;100.00
24306;BME280;12423;48.768;8.850;2023-01-29T04:43:25;98005.06;;;-0.91;100.00
24306;BME280;12423;48.768;8.850;2023-01-29T04:48:14;97997.22;;;-0.91;100.00
24306;BME280;12423;48.768;8.850;2023-01-29T04:50:32;97998.03;;;-0.89;100.00
24306;BME280;12423;48.768;8.850;2023-01-29T04:52:54;97999.88;;;-0.93;100.00
24306;BME280;12423;48.768;8.850;2023-01-29T04:57:15;97999.63;;;-0.82;100.00
24306;BME280;12423;48.768;8.850;2023-01-29T04:59:29;98002.31;;;-0.85;100.00
24306;BME280;12423;48.768;8.850;2023-01-29T05:01:32;97999.13;;;-0.98;100.00
24306;BME280;12423;48.768;8.850;2023-01-29T05:03:36;98004.16;;;-0.89;100.00
24306;BME280;12423;48.768;8.850;2023-01-29T05:05:47;97992.78;;;-0.89;100.00
24306;BME280;12423;48.768;8.850;2023-01-29T05:07:49;97993.97;;;-1.03;100.00
24306;BME280;12423;48.768;8.850;2023-01-29T05:09:51;97994.66;;;-0.95;100.00
24306;BME280;12423;48.768;8.850;2023-01-29T05:11:52;97998.03;;;-0.89;100.00
24306;BME280;12423;48.768;8.850;2023-01-29T05:13:54;97999.69;;;-0.85;100.00
24306;BME280;12423;48.768;8.850;2023-01-29T05:16:01;97994.50;;;-0.88;100.00
24306;BME280;12423;48.768;8.850;2023-01-29T05:18:05;97998.09;;;-0.93;100.00
24306;BME280;12423;48.768;8.850;2023-01-29T05:20:10;97996.47;;;-0.97;100.00
24306;BME280;12423;48.768;8.850;2023-01-29T05:22:13;97997.16;;;-0.90;100.00
24306;BME280;12423;48.768;8.850;2023-01-29T05:24:18;97999.03;;;-0.95;100.00
24306;BME280;12423;48.768;8.850;2023-01-29T05:26:20;98006.81;;;-0.90;100.00
24306;BME280;12423;48.768;8.850;2023-01-29T05:28:39;98001.50;;;-0.87;100.00
24306;BME280;12423;48.768;8.850;2023-01-29T05:30:43;98009.53;;;-0.95;100.00
24306;BME280;12423;48.768;8.850;2023-01-29T05:32:44;98019.09;;;-0.93;100.00
24306;BME280;12423;48.768;8.850;2023-01-29T05:34:45;98019.94;;;-0.90;100.00
24306;BME280;12423;48.768;8.850;2023-01-29T05:36:46;98017.22;;;-0.87;100.00
24306;BME280;12423;48.768;8.850;2023-01-29T05:38:47;98008.50;;;-0.89;100.00
24306;BME280;12423;48.768;8.850;2023-01-29T05:40:48;98008.41;;;-0.85;100.00
24306;BME280;12423;48.768;8.850;2023-01-29T05:42:49;98010.03;;;-0.79;100.00
24306;BME280;12423;48.768;8.850;2023-01-29T05:44:50;98007.59;;;-0.87;100.00
24306;BME280;12423;48.768;8.850;2023-01-29T05:46:51;97997.94;;;-0.86;100.00
24306;BME280;12423;48.768;8.850;2023-01-29T05:48:52;97991.59;;;-0.78;100.00
24306;BME280;12423;48.768;8.850;2023-01-29T05:50:58;97980.66;;;-0.94;100.00
24306;BME280;12423;48.768;8.850;2023-01-29T05:53:00;97959.28;;;-1.14;100.00
24306;BME280;12423;48.768;8.850;2023-01-29T05:55:01;97962.13;;;-1.22;100.00
24306;BME280;12423;48.768;8.850;2023-01-29T05:57:02;97964.13;;;-1.33;100.00
24306;BME280;12423;48.768;8.850;2023-01-29T05:59:03;97956.66;;;-1.14;100.00
24306;BME280;12423;48.768;8.850;2023-01-29T06:03:12;97972.41;;;-1.14;100.00
24306;BME280;12423;48.768;8.850;2023-01-29T06:05:13;97977.56;;;-1.11;100.00
24306;BME280;12423;48.768;8.850;2023-01-29T06:07:14;97973.94;;;-1.05;100.00
24306;BME280;12423;48.768;8.850;2023-01-29T06:09:15;97965.91;;;-0.99;100.00
24306;BME280;12423;48.768;8.850;2023-01-29T06:11:16;97977.03;;;-0.89;100.00
24306;BME280;12423;48.768;8.850;2023-01-29T06:13:17;97979.06;;;-1.01;100.00
24306;BME280;12423;48.768;8.850;2023-01-29T06:15:18;97984.28;;;-0.99;100.00
24306;BME280;12423;48.768;8.850;2023-01-29T06:17:19;97987.78;;;-0.99;100.00
24306;BME280;12423;48.768;8.850;2023-01-29T06:19:20;97980.66;;;-0.94;100.00
24306;BME280;12423;48.768;8.850;2023-01-29T06:21:21;97974.00;;;-1.07;100.00
24306;BME280;12423;48.768;8.850;2023-01-29T06:23:22;97986.25;;;-1.09;100.00
24306;BME280;12423;48.768;8.850;2023-01-29T06:25:23;97989.41;;;-0.95;100.00
24306;BME280;12423;48.768;8.850;2023-01-29T06:27:24;97993.03;;;-0.99;100.00
24306;BME280;12423;48.768;8.850;2023-01-29T06:29:25;97986.84;;;-0.98;100.00
24306;BME280;12423;48.768;8.850;2023-01-29T06:31:26;97984.16;;;-0.95;100.00
24306;BME280;12423;48.768;8.850;2023-01-29T06:33:27;97987.78;;;-0.99;100.00
24306;BME280;12423;48.768;8.850;2023-01-29T06:35:28;97996.31;;;-0.90;100.00
24306;BME280;12423;48.768;8.850;2023-01-29T06:37:29;97997.38;;;-0.99;100.00
24306;BME280;12423;48.768;8.850;2023-01-29T06:39:30;97994.72;;;-0.98;100.00
24306;BME280;12423;48.768;8.850;2023-01-29T06:41:31;97986.81;;;-0.96;100.00
24306;BME280;12423;48.768;8.850;2023-01-29T06:43:32;97990.25;;;-0.94;100.00
24306;BME280;12423;48.768;8.850;2023-01-29T06:45:33;97990.41;;;-0.99;100.00
24306;BME280;12423;48.768;8.850;2023-01-29T06:47:34;97989.63;;;-1.02;100.00
24306;BME280;12423;48.768;8.850;2023-01-29T06:49:35;97992.09;;;-0.98;100.00
24306;BME280;12423;48.768;8.850;2023-01-29T06:51:36;97989.47;;;-0.98;100.00
24306;BME280;12423;48.768;8.850;2023-01-29T06:53:38;97986.63;;;-0.88;100.00
24306;BME280;12423;48.768;8.850;2023-01-29T06:55:39;97991.09;;;-0.92;100.00
24306;BME280;12423;48.768;8.850;2023-01-29T06:57:40;97994.50;;;-0.88;100.00
24306;BME280;12423;48.768;8.850;2023-01-29T06:59:41;97998.09;;;-0.93;100.00
24306;BME280;12423;48.768;8.850;2023-01-29T07:01:42;97999.91;;;-0.95;100.00
24306;BME280;12423;48.768;8.850;2023-01-29T07:03:43;98001.63;;;-0.94;100.00
24306;BME280;12423;48.768;8.850;2023-01-29T07:05:51;98009.44;;;-0.90;100.00
24306;BME280;12423;48.768;8.850;2023-01-29T07:07:52;98000.47;;;-0.82;100.00
24306;BME280;12423;48.768;8.850;2023-01-29T07:09:53;97993.31;;;-0.75;100.00
24306;BME280;12423;48.768;8.850;2023-01-29T07:11:54;97992.63;;;-0.83;100.00
24306;BME280;12423;48.768;8.850;2023-01-29T07:13:55;97984.03;;;-0.88;100.00
24306;BME280;12423;48.768;8.850;2023-01-29T07:15:57;97983.88;;;-0.82;100.00
24306;BME280;12423;48.768;8.850;2023-01-29T07:18:03;97990.81;;;-0.81;100.00
24306;BME280;12423;48.768;8.850;2023-01-29T07:20:11;97996.81;;;-0.76;100.00
24306;BME280;12423;48.768;8.850;2023-01-29T07:22:12;97996.66;;;-0.70;100.00
24306;BME280;12423;48.768;8.850;2023-01-29T07:24:14;98000.28;;;-0.74;100.00
24306;BME280;12423;48.768;8.850;2023-01-29T07:26:16;98003.38;;;-0.94;100.00
24306;BME280;12423;48.768;8.850;2023-01-29T07:28:17;98005.13;;;-0.93;100.00
24306;BME280;12423;48.768;8.850;2023-01-29T07:30:20;97999.69;;;-0.85;100.00
24306;BME280;12423;48.768;8.850;2023-01-29T07:32:21;98011.69;;;-0.77;100.00
24306;BME280;12423;48.768;8.850;2023-01-29T07:34:21;98021.63;;;-0.89;100.00
24306;BME280;12423;48.768;8.850;2023-01-29T07:36:22;98012.59;;;-0.78;100.00
24306;BME280;12423;48.768;8.850;2023-01-29T07:38:23;98022.16;;;-0.75;100.00
24306;BME280;12423;48.768;8.850;2023-01-29T07:40:24;98023.91;;;-0.74;100.00
24306;BME280;12423;48.768;8.850;2023-01-29T07:42:25;98025.63;;;-0.75;100.00
24306;BME280;12423;48.768;8.850;2023-01-29T07:44:26;98028.88;;;-0.63;100.00
24306;BME280;12423;48.768;8.850;2023-01-29T07:46:27;98027.97;;;-0.62;100.00
24306;BME280;12423;48.768;8.850;2023-01-29T07:48:28;98031.25;;;-0.54;100.00
24306;BME280;12423;48.768;8.850;2023-01-29T07:50:31;98025.91;;;-0.49;100.00
24306;BME280;12423;48.768;8.850;2023-01-29T07:52:32;98031.97;;;-0.47;100.00
24306;BME280;12423;48.768;8.850;2023-01-29T07:54:33;98032.84;;;-0.48;100.00
24306;BME280;12423;48.768;8.850;2023-01-29T07:56:34;98030.28;;;-0.50;100.00
24306;BME280;12423;48.768;8.850;2023-01-29T07:58:35;98032.00;;;-0.49;100.00
24306;BME280;12423;48.768;8.850;2023-01-29T08:00:36;98035.41;;;-0.45;100.00
24306;BME280;12423;48.768;8.850;2023-01-29T08:02:38;98040.66;;;-0.45;100.00
24306;BME280;12423;48.768;8.850;2023-01-29T08:04:39;98038.69;;;-0.37;100.00
24306;BME280;12423;48.768;8.850;2023-01-29T08:06:40;98044.94;;;-0.41;100.00
24306;BME280;12423;48.768;8.850;2023-01-29T08:08:41;98038.03;;;-0.45;100.00
24306;BME280;12423;48.768;8.850;2023-01-29T08:10:42;98039.59;;;-0.38;100.00
24306;BME280;12423;48.768;8.850;2023-01-29T08:12:42;98036.88;;;-0.35;100.00
24306;BME280;12423;48.768;8.850;2023-01-29T08:14:43;98045.75;;;-0.39;100.00
24306;BME280;12423;48.768;8.850;2023-01-29T08:16:45;98045.41;;;-0.27;100.00
24306;BME280;12423;48.768;8.850;2023-01-29T08:18:46;98052.56;;;-0.32;100.00
24306;BME280;12423;48.768;8.850;2023-01-29T08:20:48;98048.44;;;-0.42;100.00
24306;BME280;12423;48.768;8.850;2023-01-29T08:22:57;98054.59;;;-0.43;100.00
24306;BME280;12423;48.768;8.850;2023-01-29T08:24:58;98064.09;;;-0.38;100.00
24306;BME280;12423;48.768;8.850;2023-01-29T08:26:59;98055.25;;;-0.35;100.00
24306;BME280;12423;48.768;8.850;2023-01-29T08:29:00;98061.09;;;-0.24;100.00
24306;BME280;12423;48.768;8.850;2023-01-29T08:31:01;98059.47;;;-0.28;100.00
24306;BME280;12423;48.768;8.850;2023-01-29T08:33:02;98066.34;;;-0.24;100.00
24306;BME280;12423;48.768;8.850;2023-01-29T08:35:04;98057.50;;;-0.20;100.00
24306;BME280;12423;48.768;8.850;2023-01-29T08:37:05;98065.06;;;-0.09;100.00
24306;BME280;12423;48.768;8.850;2023-01-29T08:39:06;98066.03;;;-0.11;100.00
24306;BME280;12423;48.768;8.850;2023-01-29T08:41:07;98066.03;;;-0.11;100.00
24306;BME280;12423;48.768;8.850;2023-01-29T08:43:09;98071.22;;;-0.08;100.00
24306;BME280;12423;48.768;8.850;2023-01-29T08:45:11;98069.47;;;-0.09;100.00
24306;BME280;12423;48.768;8.850;2023-01-29T08:47:11;98068.16;;;-0.26;100.00
24306;BME280;12423;48.768;8.850;2023-01-29T08:49:12;98072.22;;;-0.14;100.00
24306;BME280;12423;48.768;8.850;2023-01-29T08:51:13;98069.31;;;-0.03;100.00
24306;BME280;12423;48.768;8.850;2023-01-29T08:53:14;98066.19;;;-0.17;100.00
24306;BME280;12423;48.768;8.850;2023-01-29T08:55:15;98059.50;;;-0.29;100.00
24306;BME280;12423;48.768;8.850;2023-01-29T08:57:16;98062.22;;;-0.32;100.00
24306;BME280;12423;48.768;8.850;2023-01-29T08:59:17;98062.84;;;-0.23;100.00
24306;BME280;12423;48.768;8.850;2023-01-29T09:01:18;98059.50;;;-0.29;100.00
24306;BME280;12423;48.768;8.850;2023-01-29T09:03:19;98056.34;;;-0.42;100.00
24306;BME280;12423;48.768;8.850;2023-01-29T09:05:20;98060.94;;;-0.17;100.00
24306;BME280;12423;48.768;8.850;2023-01-29T09:07:21;98063.50;;;-0.14;100.00
24306;BME280;12423;48.768;8.850;2023-01-29T09:09:22;98067.88;;;-0.15;100.00
24306;BME280;12423;48.768;8.850;2023-01-29T09:11:24;98066.81;;;-0.08;100.00
24306;BME280;12423;48.768;8.850;2023-01-29T09:13:25;98070.44;;;-0.13;100.00
24306;BME280;12423;48.768;8.850;2023-01-29T09:15:26;98068.25;;;-0.29;100.00
24306;BME280;12423;48.768;8.850;2023-01-29T09:17:27;98070.00;;;-0.29;100.00
24306;BME280;12423;48.768;8.850;2023-01-29T09:19:28;98076.28;;;-0.35;100.00
24306;BME280;12423;48.768;8.850;2023-01-29T09:21:29;98078.06;;;-0.37;100.00
24306;BME280;12423;48.768;8.850;2023-01-29T09:23:30;98076.56;;;-0.11;100.00
24306;BME280;12423;48.768;8.850;2023-01-29T09:25:31;98073.47;;;0.06;100.00
24306;BME280;12423;48.768;8.850;2023-01-29T09:27:32;98067.31;;;0.07;100.00
24306;BME280;12423;48.768;8.850;2023-01-29T09:29:33;98078.56;;;0.12;100.00
24306;BME280;12423;48.768;8.850;2023-01-29T09:31:34;98079.41;;;0.12;100.00
24306;BME280;12423;48.768;8.850;2023-01-29T09:33:35;98090.88;;;0.08;100.00
24306;BME280;12423;48.768;8.850;2023-01-29T09:35:39;98081.63;;;-0.05;100.00
24306;BME280;12423;48.768;8.850;2023-01-29T09:37:40;98078.69;;;-0.27;100.00
24306;BME280;12423;48.768;8.850;2023-01-29T09:39:42;98083.13;;;0.05;100.00
24306;BME280;12423;48.768;8.850;2023-01-29T09:43:50;98078.56;;;0.43;100.00
24306;BME280;12423;48.768;8.850;2023-01-29T09:46:00;98072.16;;;0.52;100.00
24306;BME280;12423;48.768;8.850;2023-01-29T09:48:02;98061.38;;;0.61;100.00
24306;BME280;12423;48.768;8.850;2023-01-29T09:50:08;98060.78;;;0.51;100.00
24306;BME280;12423;48.768;8.850;2023-01-29T09:52:17;98058.19;;;0.50;100.00
24306;BME280;12423;48.768;8.850;2023-01-29T09:54:41;98040.03;;;0.70;100.00
24306;BME280;12423;48.768;8.850;2023-01-29T09:56:50;98039.59;;;0.86;100.00
24306;BME280;12423;48.768;8.850;2023-01-29T09:58:52;98035.75;;;0.68;100.00
24306;BME280;12423;48.768;8.850;2023-01-29T10:00:59;98031.06;;;1.06;100.00
24306;BME280;12423;48.768;8.850;2023-01-29T10:03:19;98023.56;;;1.20;100.00
24306;BME280;12423;48.768;8.850;2023-01-29T10:05:38;98011.97;;;1.26;100.00
24306;BME280;12423;48.768;8.850;2023-01-29T10:12:39;98013.50;;;1.58;100.00
24306;BME280;12423;48.768;8.850;2023-01-29T10:17:35;98006.63;;;1.29;100.00
24306;BME280;12423;48.768;8.850;2023-01-29T10:20:02;98010.19;;;1.53;100.00
24306;BME280;12423;48.768;8.850;2023-01-29T10:24:35;98010.53;;;1.69;100.00
24306;BME280;12423;48.768;8.850;2023-01-29T10:26:37;98015.28;;;1.33;100.00
24306;BME280;12423;48.768;8.850;2023-01-29T10:28:42;98011.53;;;0.57;100.00
24306;BME280;12423;48.768;8.850;2023-01-29T10:30:50;98015.53;;;0.40;100.00
24306;BME280;12423;48.768;8.850;2023-01-29T10:32:56;98008.97;;;0.83;100.00
24306;BME280;12423;48.768;8.850;2023-01-29T10:35:04;98008.22;;;1.06;100.00
24306;BME280;12423;48.768;8.850;2023-01-29T10:37:15;98017.16;;;1.29;100.00
24306;BME280;12423;48.768;8.850;2023-01-29T10:39:18;98017.81;;;1.36;100.00
24306;BME280;12423;48.768;8.850;2023-01-29T10:41:46;98020.50;;;1.34;100.00
24306;BME280;12423;48.768;8.850;2023-01-29T10:46:05;98014.94;;;1.15;100.00
24306;BME280;12423;48.768;8.850;2023-01-29T10:48:25;98011.63;;;1.10;100.00
24306;BME280;12423;48.768;8.850;2023-01-29T10:55:45;98023.25;;;1.29;100.00
24306;BME280;12423;48.768;8.850;2023-01-29T11:00:53;98022.84;;;0.88;100.00
24306;BME280;12423;48.768;8.850;2023-01-29T11:02:30;98022.13;;;1.10;100.00
24306;BME280;12423;48.768;8.850;2023-01-29T11:04:31;98022.56;;;0.98;100.00
24306;BME280;12423;48.768;8.850;2023-01-29T11:06:34;98018.75;;;1.06;100.00
24306;BME280;12423;48.768;8.850;2023-01-29T11:08:45;98014.66;;;0.98;100.00
24306;BME280;12423;48.768;8.850;2023-01-29T11:11:13;98019.69;;;1.04;100.00
24306;BME280;12423;48.768;8.850;2023-01-29T11:13:15;98012.69;;;1.04;100.00
24306;BME280;12423;48.768;8.850;2023-01-29T11:15:23;98015.41;;;1.28;100.00
24306;BME280;12423;48.768;8.850;2023-01-29T11:17:28;98016.25;;;1.28;100.00
24306;BME280;12423;48.768;8.850;2023-01-29T11:19:40;98010.75;;;1.09;100.00
24306;BME280;12423;48.768;8.850;2023-01-29T11:21:59;98006.31;;;1.12;100.00
24306;BME280;12423;48.768;8.850;2023-01-29T11:24:12;98000.59;;;1.25;100.00
24306;BME280;12423;48.768;8.850;2023-01-29T11:26:19;97996.00;;;1.32;100.00
24306;BME280;12423;48.768;8.850;2023-01-29T11:28:54;97998.03;;;1.24;100.00
24306;BME280;12423;48.768;8.850;2023-01-29T11:30:56;97988.63;;;1.15;100.00
24306;BME280;12423;48.768;8.850;2023-01-29T11:33:11;97979.88;;;1.41;100.00
24306;BME280;12423;48.768;8.850;2023-01-29T11:35:23;97970.63;;;1.29;100.00
24306;BME280;12423;48.768;8.850;2023-01-29T11:37:32;97974.06;;;1.32;100.00
24306;BME280;12423;48.768;8.850;2023-01-29T11:39:33;97979.25;;;1.33;100.00
24306;BME280;12423;48.768;8.850;2023-01-29T11:41:58;97978.31;;;1.36;100.00
24306;BME280;12423;48.768;8.850;2023-01-29T11:44:00;97973.66;;;1.44;100.00
24306;BME280;12423;48.768;8.850;2023-01-29T11:46:03;97976.19;;;1.47;100.00
24306;BME280;12423;48.768;8.850;2023-01-29T11:48:13;97981.16;;;1.55;100.00
24306;BME280;12423;48.768;8.850;2023-01-29T11:50:41;97967.09;;;1.56;100.00
24306;BME280;12423;48.768;8.850;2023-01-29T11:52:42;97978.38;;;1.59;100.00
24306;BME280;12423;48.768;8.850;2023-01-29T11:56:52;97975.88;;;1.29;100.00